Time;durP1;ratioP1;P1;durP2;ratioP2;P2;SDS_P1;SDS_P2;PMS_P1;PMS_P2;Temp;Humidity;BMP_temperature;BMP_pressure;BME280_temperature;BME280_humidity;BME280_pressure;Samples;Min_cycle;Max_cycle;Signal;HPM_P1;HPM_P2
2022/11/02 00:00:33;;;;;;;10.10;4.80;;;20.70;58.60;;;;;;5072042;28;20071;-76
2022/11/02 00:02:59;;;;;;;12.55;3.97;;;20.90;59.00;;;;;;5070462;28;20021;-76
2022/11/02 00:05:25;;;;;;;8.73;4.03;;;21.20;59.10;;;;;;5073155;28;20478;-76
2022/11/02 00:07:53;;;;;;;9.07;4.20;;;21.50;59.30;;;;;;5055491;28;20027;-76
2022/11/02 00:10:23;;;;;;;13.10;4.45;;;21.70;59.50;;;;;;5055957;28;20025;-76
2022/11/02 00:12:49;;;;;;;10.85;4.50;;;21.90;60.20;;;;;;5071777;28;20098;-77
2022/11/02 00:15:15;;;;;;;13.38;4.90;;;22.00;60.50;;;;;;5048549;28;20420;-76
2022/11/02 00:17:45;;;;;;;16.17;4.95;;;22.10;61.20;;;;;;5063983;28;20039;-76
2022/11/02 00:20:14;;;;;;;18.67;4.57;;;22.20;61.50;;;;;;5070627;28;20028;-76
2022/11/02 00:22:41;;;;;;;14.13;4.33;;;22.20;61.40;;;;;;5065427;28;20130;-76
2022/11/02 00:25:11;;;;;;;8.40;3.88;;;22.20;61.70;;;;;;5068510;28;20028;-76
2022/11/02 00:27:37;;;;;;;13.00;4.60;;;22.20;62.00;;;;;;5053400;28;20032;-76
2022/11/02 00:30:03;;;;;;;16.13;5.00;;;22.30;62.20;;;;;;5072645;28;20024;-76
2022/11/02 00:32:29;;;;;;;14.77;4.90;;;22.30;62.40;;;;;;5071084;28;20032;-76
2022/11/02 00:34:55;;;;;;;17.05;4.82;;;22.30;62.70;;;;;;5071568;28;20071;-76
2022/11/02 00:37:21;;;;;;;13.82;4.18;;;22.30;62.10;;;;;;5069772;28;20056;-76
2022/11/02 00:39:47;;;;;;;13.23;4.30;;;22.30;62.60;;;;;;5068547;28;20079;-76
2022/11/02 00:42:13;;;;;;;11.35;4.40;;;22.30;62.40;;;;;;5076856;28;20042;-76
2022/11/02 00:44:39;;;;;;;17.33;4.90;;;22.30;62.80;;;;;;5071077;28;20016;-76
2022/11/02 00:47:05;;;;;;;13.75;4.43;;;22.30;62.80;;;;;;5075649;28;20017;-76
2022/11/02 00:49:30;;;;;;;12.13;4.47;;;22.30;62.60;;;;;;5074284;28;20504;-76
2022/11/02 00:51:57;;;;;;;12.35;4.25;;;22.30;62.70;;;;;;5083251;28;20474;-76
2022/11/02 00:54:25;;;;;;;10.80;4.03;;;22.40;62.60;;;;;;5085697;28;20036;-76
2022/11/02 00:56:53;;;;;;;11.48;3.95;;;22.30;62.60;;;;;;5085644;28;20028;-76
2022/11/02 00:59:18;;;;;;;15.30;4.40;;;22.40;62.90;;;;;;5085920;28;20028;-76
2022/11/02 01:01:46;;;;;;;14.20;4.45;;;22.40;62.90;;;;;;5069507;28;20033;-76
2022/11/02 01:04:16;;;;;;;9.30;3.67;;;22.40;62.40;;;;;;5051162;28;20028;-76
2022/11/02 01:06:43;;;;;;;9.70;4.10;;;22.40;62.50;;;;;;5071641;28;20025;-76
2022/11/02 01:09:10;;;;;;;12.35;3.80;;;22.40;62.40;;;;;;5085894;28;20094;-76
2022/11/02 01:11:36;;;;;;;10.27;4.30;;;22.40;62.60;;;;;;5069415;28;20028;-76
2022/11/02 01:14:02;;;;;;;9.85;3.95;;;22.40;62.30;;;;;;5066378;28;20017;-76
2022/11/02 01:16:29;;;;;;;8.93;3.88;;;22.40;62.50;;;;;;5086560;28;20028;-76
2022/11/02 01:18:55;;;;;;;8.73;3.65;;;22.40;62.30;;;;;;5070149;28;20096;-75
2022/11/02 01:21:22;;;;;;;12.82;3.75;;;22.40;62.10;;;;;;5070247;28;20039;-75
2022/11/02 01:23:48;;;;;;;10.07;3.75;;;22.40;62.20;;;;;;5085724;28;20052;-75
2022/11/02 01:26:13;;;;;;;10.23;3.63;;;22.40;62.40;;;;;;5087203;28;20032;-76
2022/11/02 01:28:40;;;;;;;11.40;3.80;;;22.40;62.30;;;;;;5070108;28;20040;-76
2022/11/02 01:31:06;;;;;;;6.47;3.30;;;22.40;62.70;;;;;;5054046;28;20040;-75
2022/11/02 01:33:33;;;;;;;10.82;3.67;;;22.40;62.70;;;;;;5068882;28;20099;-76
2022/11/02 01:36:02;;;;;;;6.93;3.30;;;22.40;62.50;;;;;;5069755;28;20021;-76
2022/11/02 01:38:30;;;;;;;9.97;3.80;;;22.40;62.20;;;;;;5081499;28;20047;-75
2022/11/02 01:40:56;;;;;;;8.43;3.28;;;22.40;62.10;;;;;;5083820;28;20115;-76
2022/11/02 01:43:24;;;;;;;6.68;3.08;;;22.40;61.90;;;;;;5086196;28;20104;-75
2022/11/02 01:46:05;;;;;;;11.00;3.42;;;22.40;62.00;;;;;;5069604;28;20068;-76
2022/11/02 01:48:32;;;;;;;9.23;3.20;;;22.40;62.10;;;;;;5069135;28;20029;-76
2022/11/02 01:51:02;;;;;;;6.78;3.10;;;22.40;61.70;;;;;;5081173;28;20020;-76
2022/11/02 01:53:30;;;;;;;8.43;3.00;;;22.40;61.90;;;;;;5067904;28;20036;-75
2022/11/02 01:55:57;;;;;;;6.85;3.00;;;22.40;61.90;;;;;;5074063;28;20029;-76
2022/11/02 01:58:23;;;;;;;5.60;2.80;;;22.40;61.90;;;;;;5087237;28;20032;-76
2022/11/02 02:00:49;;;;;;;7.97;3.08;;;22.40;61.90;;;;;;5069441;28;20097;-76
2022/11/02 02:03:17;;;;;;;10.00;3.33;;;22.40;61.70;;;;;;5070233;28;20029;-76
2022/11/02 02:05:53;;;;;;;9.85;3.55;;;22.40;61.80;;;;;;5082851;28;20025;-76
2022/11/02 02:08:22;;;;;;;8.23;3.40;;;22.40;61.80;;;;;;5074145;28;20728;-76
2022/11/02 02:10:48;;;;;;;8.67;3.53;;;22.40;61.90;;;;;;5067557;28;20032;-75
2022/11/02 02:13:15;;;;;;;5.65;2.78;;;22.40;61.70;;;;;;5082175;28;20420;-76
2022/11/02 02:15:47;;;;;;;5.90;2.70;;;22.40;61.60;;;;;;5049714;28;20339;-76
2022/11/02 02:18:25;;;;;;;8.80;3.00;;;22.40;61.90;;;;;;5072808;28;20425;-76
2022/11/02 02:21:07;;;;;;;10.15;2.60;;;22.40;61.70;;;;;;5080288;28;20056;-76
2022/11/02 02:24:15;;;;;;;9.15;3.05;;;22.40;61.90;;;;;;5082801;28;20111;-76
2022/11/02 02:27:17;;;;;;;9.82;3.00;;;22.40;61.60;;;;;;5059401;28;20056;-76
2022/11/02 02:29:46;;;;;;;9.57;3.10;;;22.40;61.60;;;;;;5031998;28;20112;-76
2022/11/02 02:32:17;;;;;;;6.50;2.85;;;22.40;61.90;;;;;;5063314;28;20543;-75
2022/11/02 02:34:54;;;;;;;6.22;2.80;;;22.40;61.80;;;;;;5084702;28;20028;-76
2022/11/02 02:37:30;;;;;;;6.88;2.78;;;22.30;61.60;;;;;;5067253;28;20029;-76
2022/11/02 02:39:57;;;;;;;7.20;2.58;;;22.40;61.80;;;;;;5078949;28;20037;-76
2022/11/02 02:42:28;;;;;;;13.80;3.00;;;22.40;61.40;;;;;;5073001;28;20496;-75
2022/11/02 02:45:00;;;;;;;8.23;3.00;;;22.40;61.50;;;;;;5073534;28;20111;-76
2022/11/02 02:47:30;;;;;;;5.60;2.65;;;22.40;61.70;;;;;;5088130;28;20034;-76
2022/11/02 02:50:04;;;;;;;6.53;2.42;;;22.40;62.50;;;;;;5081839;28;20055;-76
2022/11/02 02:52:33;;;;;;;7.88;2.17;;;22.40;61.40;;;;;;5055048;28;20492;-76
2022/11/02 02:55:04;;;;;;;6.72;2.50;;;22.40;61.40;;;;;;5071166;28;20029;-76
2022/11/02 02:57:32;;;;;;;7.80;2.28;;;22.40;61.60;;;;;;5072588;28;20111;-76
2022/11/02 02:59:58;;;;;;;6.57;2.67;;;22.40;61.50;;;;;;5066333;28;20029;-76
2022/11/02 03:02:29;;;;;;;6.25;2.72;;;22.40;61.50;;;;;;5090470;28;20135;-76
2022/11/02 03:04:54;;;;;;;5.68;2.65;;;22.40;61.00;;;;;;5090307;28;20103;-76
2022/11/02 03:07:32;;;;;;;6.18;2.80;;;22.40;61.40;;;;;;5073058;28;20044;-76
2022/11/02 03:10:18;;;;;;;7.55;2.40;;;22.40;61.30;;;;;;5074185;28;20095;-76
2022/11/02 03:13:18;;;;;;;8.93;2.40;;;22.40;61.20;;;;;;5071954;28;20031;-76
2022/11/02 03:15:55;;;;;;;5.38;2.35;;;22.30;60.80;;;;;;5069324;28;20094;-76
2022/11/02 03:18:36;;;;;;;6.20;2.28;;;22.30;61.00;;;;;;5068488;28;20032;-75
2022/11/02 03:21:05;;;;;;;6.28;2.10;;;22.40;60.70;;;;;;5081964;28;20528;-75
2022/11/02 03:23:36;;;;;;;7.13;2.63;;;22.40;60.80;;;;;;5072745;28;20036;-76
2022/11/02 03:26:10;;;;;;;8.35;2.40;;;22.30;61.00;;;;;;5086952;28;20032;-76
2022/11/02 03:28:55;;;;;;;5.63;2.28;;;22.30;61.10;;;;;;5090519;28;20021;-76
2022/11/02 03:31:24;;;;;;;5.63;2.30;;;22.30;61.20;;;;;;5079377;28;20082;-76
2022/11/02 03:33:51;;;;;;;4.28;2.30;;;22.30;60.70;;;;;;5092769;28;20032;-76
2022/11/02 03:36:25;;;;;;;6.10;2.28;;;22.30;60.70;;;;;;5070925;28;20410;-76
2022/11/02 03:39:05;;;;;;;5.32;2.47;;;22.30;61.00;;;;;;5087578;28;20389;-76
2022/11/02 03:41:34;;;;;;;6.20;2.20;;;22.30;61.00;;;;;;5081817;28;20051;-75
2022/11/02 03:44:07;;;;;;;5.72;2.22;;;22.30;60.80;;;;;;5080357;28;20036;-74
2022/11/02 03:46:37;;;;;;;5.35;2.08;;;22.30;60.90;;;;;;5090526;28;20033;-76
2022/11/02 03:49:06;;;;;;;5.10;2.00;;;22.30;60.70;;;;;;5097722;28;20437;-76
2022/11/02 03:51:35;;;;;;;6.90;2.50;;;22.30;60.70;;;;;;5064659;28;20020;-75
2022/11/02 03:54:09;;;;;;;8.00;2.10;;;22.30;60.80;;;;;;5063503;28;20025;-76
2022/11/02 03:56:43;;;;;;;6.65;2.40;;;22.40;60.70;;;;;;5093819;28;20084;-76
2022/11/02 03:59:08;;;;;;;9.45;2.38;;;22.40;61.10;;;;;;5082279;28;20377;-76
2022/11/02 04:01:42;;;;;;;7.32;2.40;;;22.40;61.40;;;;;;5088207;28;20032;-76
2022/11/02 04:04:08;;;;;;;11.18;2.33;;;22.40;61.10;;;;;;5087403;28;20016;-77
2022/11/02 04:06:36;;;;;;;7.78;2.17;;;22.40;61.40;;;;;;5067342;28;20025;-76
2022/11/02 04:09:03;;;;;;;7.82;2.47;;;22.40;61.70;;;;;;5074442;28;20203;-76
2022/11/02 04:19:47;;;;;;;8.75;2.47;;;22.40;62.30;;;;;;5072953;28;20025;-77
2022/11/02 04:25:17;;;;;;;9.98;2.45;;;22.40;62.90;;;;;;5064217;28;20028;-76
2022/11/02 04:28:09;;;;;;;4.68;2.20;;;22.40;63.10;;;;;;5070878;28;20044;-76
2022/11/02 04:30:40;;;;;;;10.43;2.70;;;22.40;63.20;;;;;;5071168;28;20108;-77
2022/11/02 04:36:06;;;;;;;8.57;2.33;;;22.40;63.50;;;;;;5082800;28;20028;-76
2022/11/02 04:38:39;;;;;;;7.75;2.45;;;22.40;63.70;;;;;;5086660;28;20040;-76
2022/11/02 04:44:01;;;;;;;5.25;2.28;;;22.40;63.70;;;;;;5070126;28;20497;-76
2022/11/02 04:46:30;;;;;;;6.40;2.20;;;22.40;63.60;;;;;;5086451;28;20025;-75
2022/11/02 04:48:56;;;;;;;4.85;2.33;;;22.40;63.50;;;;;;5061941;28;20028;-74
2022/11/02 04:51:24;;;;;;;6.40;2.40;;;22.40;63.60;;;;;;5087084;28;20545;-74
2022/11/02 04:53:52;;;;;;;5.47;2.15;;;22.50;63.50;;;;;;5086465;28;20025;-75
2022/11/02 04:56:20;;;;;;;4.20;2.10;;;22.40;63.80;;;;;;5070966;28;20486;-74
2022/11/02 04:58:51;;;;;;;8.57;2.47;;;22.40;63.80;;;;;;5085505;28;20107;-74
2022/11/02 05:01:18;;;;;;;10.13;2.92;;;22.40;64.10;;;;;;5081701;28;20024;-75
2022/11/02 05:03:47;;;;;;;8.07;2.23;;;22.40;64.20;;;;;;5072978;28;20496;-75
2022/11/02 05:06:14;;;;;;;7.22;2.10;;;22.40;64.20;;;;;;5084936;28;20513;-75
2022/11/02 05:08:40;;;;;;;7.43;2.42;;;22.40;64.40;;;;;;5084713;28;20454;-75
2022/11/02 05:11:07;;;;;;;5.22;1.98;;;22.40;64.30;;;;;;5087111;28;20017;-75
2022/11/02 05:13:33;;;;;;;7.50;2.45;;;22.40;64.20;;;;;;5085632;28;20035;-76
2022/11/02 05:16:00;;;;;;;5.15;2.20;;;22.40;64.50;;;;;;5087120;28;20036;-77
2022/11/02 05:18:31;;;;;;;7.78;2.78;;;22.40;64.40;;;;;;5085457;28;20032;-77
2022/11/02 05:20:59;;;;;;;4.53;2.03;;;22.40;64.90;;;;;;5086825;28;20028;-76
2022/11/02 05:23:28;;;;;;;5.40;2.20;;;22.40;64.60;;;;;;5066669;28;20032;-75
2022/11/02 05:25:54;;;;;;;9.52;2.05;;;22.40;65.00;;;;;;5109101;22;20049;-75
2022/11/02 05:28:23;;;;;;;6.03;2.05;;;22.40;65.00;;;;;;5029058;28;20045;-76
2022/11/02 05:30:48;;;;;;;6.95;2.20;;;22.40;65.10;;;;;;5048958;28;20116;-76
2022/11/02 05:33:15;;;;;;;6.40;1.88;;;22.40;65.20;;;;;;5042748;28;20024;-76
2022/11/02 05:35:41;;;;;;;5.72;2.47;;;22.40;65.20;;;;;;5033718;28;20383;-77
2022/11/02 05:38:07;;;;;;;4.93;2.10;;;22.40;65.40;;;;;;5004492;28;20026;-77
2022/11/02 05:40:36;;;;;;;4.85;2.08;;;22.40;65.10;;;;;;4998592;28;20035;-77
2022/11/02 05:43:03;;;;;;;6.90;2.58;;;22.40;65.20;;;;;;5021394;28;20037;-76
2022/11/02 05:45:29;;;;;;;8.27;2.50;;;22.40;65.30;;;;;;5010446;28;20033;-76
2022/11/02 05:47:55;;;;;;;5.93;2.30;;;22.40;65.30;;;;;;5005005;28;20414;-76
2022/11/02 05:50:21;;;;;;;5.88;2.33;;;22.40;65.10;;;;;;5040290;28;20013;-76
2022/11/02 05:52:47;;;;;;;5.80;2.53;;;22.40;64.90;;;;;;5021096;28;20439;-76
2022/11/02 05:55:13;;;;;;;7.20;2.47;;;22.50;65.50;;;;;;5026828;28;20080;-76
2022/11/02 05:57:39;;;;;;;8.07;2.10;;;22.50;65.60;;;;;;5024079;28;20037;-76
2022/11/02 06:00:07;;;;;;;5.72;2.50;;;22.50;65.60;;;;;;5017677;28;20037;-76
2022/11/02 06:02:38;;;;;;;6.10;2.33;;;22.40;65.70;;;;;;5034660;28;20364;-76
2022/11/02 06:05:04;;;;;;;8.13;2.60;;;22.40;65.70;;;;;;5030866;28;20025;-76
2022/11/02 06:07:29;;;;;;;8.48;2.55;;;22.40;65.80;;;;;;5014152;28;20121;-76
2022/11/02 06:09:55;;;;;;;6.18;2.67;;;22.40;65.70;;;;;;5021669;28;20115;-75
2022/11/02 06:12:21;;;;;;;6.47;2.67;;;22.40;65.70;;;;;;5022547;28;20099;-74
2022/11/02 06:14:47;;;;;;;5.38;2.40;;;22.40;65.80;;;;;;5024773;28;20042;-74
2022/11/02 06:17:12;;;;;;;5.68;2.00;;;22.40;65.90;;;;;;5035121;28;20061;-74
2022/11/02 06:19:38;;;;;;;5.03;2.15;;;22.40;65.80;;;;;;5023941;28;20029;-75
2022/11/02 06:22:04;;;;;;;6.93;2.33;;;22.40;66.20;;;;;;5015589;28;20038;-75
2022/11/02 06:24:30;;;;;;;5.13;2.33;;;22.40;66.10;;;;;;5032398;28;20049;-75
2022/11/02 06:26:55;;;;;;;6.18;2.45;;;22.40;66.20;;;;;;5035920;28;20026;-75
2022/11/02 06:29:22;;;;;;;8.55;2.53;;;22.40;66.30;;;;;;5019677;28;20064;-75
2022/11/02 06:31:48;;;;;;;5.13;2.80;;;22.40;66.00;;;;;;5027114;28;20034;-76
2022/11/02 06:34:14;;;;;;;5.95;2.50;;;22.40;66.30;;;;;;5033602;28;20037;-76
2022/11/02 06:36:39;;;;;;;9.43;2.97;;;22.40;66.20;;;;;;5031725;28;20037;-75
2022/11/02 06:39:05;;;;;;;7.20;2.53;;;22.40;65.70;;;;;;5035178;28;20017;-74
2022/11/02 06:41:31;;;;;;;5.75;2.70;;;22.40;66.20;;;;;;5027767;28;20053;-75
2022/11/02 06:43:57;;;;;;;7.75;2.40;;;22.40;65.90;;;;;;5032354;28;20041;-76
2022/11/02 06:46:22;;;;;;;7.28;2.72;;;22.40;66.10;;;;;;5032332;28;20025;-76
2022/11/02 06:48:48;;;;;;;6.45;2.20;;;22.50;66.20;;;;;;5033692;28;20021;-74
2022/11/02 06:51:14;;;;;;;6.40;2.30;;;22.50;66.20;;;;;;5025827;28;20021;-75
2022/11/02 06:53:40;;;;;;;8.50;2.45;;;22.50;66.10;;;;;;5016646;28;20037;-75
2022/11/02 06:56:06;;;;;;;4.93;2.22;;;22.50;66.00;;;;;;5023944;28;20034;-74
2022/11/02 06:58:32;;;;;;;6.28;2.50;;;22.50;66.20;;;;;;5025365;28;20036;-74
2022/11/02 07:01:00;;;;;;;5.32;2.13;;;22.40;66.40;;;;;;5018376;28;20029;-75
2022/11/02 07:03:27;;;;;;;6.57;2.47;;;22.40;66.50;;;;;;5026163;28;20132;-74
2022/11/02 07:05:53;;;;;;;8.30;2.55;;;22.40;66.60;;;;;;5041510;28;20074;-74
2022/11/02 07:08:20;;;;;;;4.65;2.30;;;22.40;66.40;;;;;;5048300;28;20032;-74
2022/11/02 07:10:46;;;;;;;8.43;2.65;;;22.40;66.50;;;;;;5035015;28;20053;-74
2022/11/02 07:13:12;;;;;;;4.53;2.20;;;22.40;66.70;;;;;;5024931;28;20393;-74
2022/11/02 07:15:38;;;;;;;5.60;2.60;;;22.40;66.60;;;;;;5029576;28;20117;-74
2022/11/02 07:18:05;;;;;;;6.13;2.47;;;22.40;66.10;;;;;;5025616;28;20033;-74
2022/11/02 07:20:32;;;;;;;6.70;2.55;;;22.40;66.80;;;;;;5041515;28;20071;-74
2022/11/02 07:22:59;;;;;;;6.38;2.25;;;22.40;66.30;;;;;;5035825;28;20119;-74
2022/11/02 07:25:27;;;;;;;6.38;2.25;;;22.40;66.70;;;;;;5037520;28;20040;-75
2022/11/02 07:27:53;;;;;;;5.50;2.10;;;22.40;66.70;;;;;;5010206;28;20034;-75
2022/11/02 07:30:21;;;;;;;6.22;2.20;;;22.40;66.70;;;;;;4998867;28;20455;-75
2022/11/02 07:32:47;;;;;;;3.22;2.00;;;22.40;66.90;;;;;;5009003;28;20099;-74
2022/11/02 07:35:14;;;;;;;6.80;2.50;;;22.40;67.00;;;;;;5029979;28;20487;-75
2022/11/02 07:37:40;;;;;;;12.85;2.40;;;22.40;67.00;;;;;;5024673;28;20037;-76
2022/11/02 07:40:08;;;;;;;5.47;2.58;;;22.40;67.00;;;;;;5018928;28;20041;-74
2022/11/02 07:42:34;;;;;;;9.15;2.75;;;22.40;66.80;;;;;;5032139;28;20122;-74
2022/11/02 07:45:03;;;;;;;6.25;2.65;;;22.50;66.80;;;;;;5039305;28;20053;-75
2022/11/02 07:47:32;;;;;;;6.80;2.63;;;22.50;66.80;;;;;;5014998;28;20432;-74
2022/11/02 07:49:58;;;;;;;12.95;2.97;;;22.50;66.30;;;;;;5027818;28;20167;-74
2022/11/02 07:52:24;;;;;;;9.52;2.80;;;22.50;67.10;;;;;;5039513;28;20084;-74
2022/11/02 07:54:50;;;;;;;9.45;3.05;;;22.50;66.60;;;;;;5033010;28;20371;-74
2022/11/02 07:57:16;;;;;;;12.35;3.00;;;22.50;66.80;;;;;;5026449;28;20036;-75
2022/11/02 07:59:41;;;;;;;10.70;2.97;;;22.50;66.90;;;;;;5048345;28;20037;-75
2022/11/02 08:02:12;;;;;;;6.28;2.42;;;22.50;67.20;;;;;;5015688;28;20057;-75
2022/11/02 08:04:38;;;;;;;8.98;2.45;;;22.50;66.70;;;;;;5038092;28;20083;-75
2022/11/02 08:07:03;;;;;;;7.43;2.80;;;22.50;67.50;;;;;;5037081;28;20025;-75
2022/11/02 08:09:29;;;;;;;11.38;3.10;;;22.60;68.10;;;;;;5027360;28;20080;-74
2022/11/02 08:11:56;;;;;;;17.40;2.97;;;22.60;68.80;;;;;;5013917;28;20159;-74
2022/11/02 08:14:22;;;;;;;16.00;3.20;;;22.20;56.70;;;;;;5031043;28;20057;-75
2022/11/02 08:16:50;;;;;;;16.00;2.80;;;21.50;54.40;;;;;;5031088;28;20057;-74
2022/11/02 08:19:16;;;;;;;25.90;3.80;;;21.50;56.30;;;;;;5023884;28;20476;-74
2022/11/02 08:21:42;;;;;;;15.85;3.33;;;21.70;58.00;;;;;;5017844;28;20036;-75
2022/11/02 08:24:08;;;;;;;19.45;2.85;;;21.90;58.10;;;;;;5027142;28;20024;-75
2022/11/02 08:26:34;;;;;;;13.43;2.97;;;22.00;58.50;;;;;;5032391;28;20025;-76
2022/11/02 08:29:00;;;;;;;13.70;2.90;;;22.10;58.20;;;;;;5019750;28;20079;-76
2022/11/02 08:31:26;;;;;;;21.20;3.13;;;22.10;58.90;;;;;;5009355;28;20030;-76
2022/11/02 08:33:52;;;;;;;11.25;2.90;;;22.20;59.60;;;;;;5030147;28;20030;-75
2022/11/02 08:36:18;;;;;;;9.93;3.10;;;22.30;60.80;;;;;;4995685;28;20030;-77
2022/11/02 08:38:44;;;;;;;14.05;3.40;;;22.40;61.10;;;;;;5037210;28;20040;-76
2022/11/02 08:41:10;;;;;;;20.17;3.47;;;22.50;61.40;;;;;;5024419;28;20029;-75
2022/11/02 08:43:36;;;;;;;19.40;3.20;;;22.60;62.00;;;;;;5046492;28;20483;-76
2022/11/02 08:46:02;;;;;;;17.13;3.42;;;22.70;62.40;;;;;;5022095;28;20036;-74
2022/11/02 08:48:28;;;;;;;11.95;3.78;;;22.70;63.40;;;;;;5010668;28;20029;-78
2022/11/02 08:50:55;;;;;;;35.47;19.35;;;22.50;57.40;;;;;;5012608;28;20026;-75
2022/11/02 08:53:20;;;;;;;26.25;15.60;;;22.30;56.80;;;;;;5036971;28;20025;-74
2022/11/02 08:55:46;;;;;;;24.95;12.85;;;22.20;57.20;;;;;;5008039;28;20032;-74
2022/11/02 08:58:12;;;;;;;26.33;9.48;;;22.20;58.10;;;;;;5010109;28;20022;-74
2022/11/02 09:00:38;;;;;;;21.42;8.43;;;22.20;58.70;;;;;;5031088;28;20044;-75
2022/11/02 09:03:11;;;;;;;19.00;8.32;;;22.20;58.80;;;;;;5011280;28;20017;-74
2022/11/02 09:05:45;;;;;;;18.73;8.05;;;22.20;59.30;;;;;;5027429;28;20030;-74
2022/11/02 09:08:19;;;;;;;25.63;7.72;;;22.20;58.70;;;;;;4997268;28;20028;-75
2022/11/02 09:10:48;;;;;;;18.08;6.38;;;22.20;59.20;;;;;;5018377;28;20083;-75
2022/11/02 09:13:17;;;;;;;21.23;7.40;;;22.20;59.10;;;;;;5025952;28;20022;-74
2022/11/02 09:15:42;;;;;;;34.13;8.15;;;22.30;60.40;;;;;;5024242;28;20514;-75
2022/11/02 09:18:09;;;;;;;24.90;8.00;;;22.40;64.40;;;;;;5004553;28;20681;-75
2022/11/02 09:20:35;;;;;;;30.15;8.07;;;22.40;62.00;;;;;;5005606;28;20129;-75
2022/11/02 09:23:01;;;;;;;20.40;7.85;;;22.40;60.70;;;;;;5018193;28;20112;-75
2022/11/02 09:25:27;;;;;;;22.85;8.43;;;22.50;61.30;;;;;;5016485;28;20124;-75
2022/11/02 09:27:54;;;;;;;25.02;7.50;;;22.50;61.70;;;;;;5011272;28;20060;-76
2022/11/02 09:30:23;;;;;;;31.70;9.38;;;22.50;63.80;;;;;;5043087;28;20441;-75
2022/11/02 09:32:57;;;;;;;27.90;8.18;;;22.50;64.90;;;;;;5012681;28;20033;-75
2022/11/02 09:35:24;;;;;;;35.88;8.63;;;22.50;63.30;;;;;;5022092;28;20029;-75
2022/11/02 09:37:50;;;;;;;19.77;7.80;;;22.50;63.10;;;;;;5028854;28;20037;-75
2022/11/02 09:40:21;;;;;;;20.10;7.78;;;22.50;63.20;;;;;;5028738;28;20040;-75
2022/11/02 09:43:07;;;;;;;26.98;7.75;;;22.50;62.90;;;;;;4994957;28;20498;-75
2022/11/02 09:45:40;;;;;;;19.60;7.18;;;22.50;63.20;;;;;;5030198;28;20095;-75
2022/11/02 09:48:21;;;;;;;18.42;7.63;;;22.50;63.10;;;;;;5012177;28;20105;-75
2022/11/02 09:51:08;;;;;;;17.48;7.28;;;22.50;63.20;;;;;;5029596;28;20095;-75
2022/11/02 09:53:55;;;;;;;23.00;6.57;;;22.50;63.50;;;;;;5029558;28;20544;-75
2022/11/02 09:56:22;;;;;;;21.73;7.13;;;22.50;63.40;;;;;;5029990;28;20029;-75
2022/11/02 09:58:55;;;;;;;24.45;7.68;;;22.50;63.40;;;;;;5029998;28;20045;-75
2022/11/02 10:01:33;;;;;;;21.70;7.05;;;22.60;63.50;;;;;;5029656;28;20498;-75
2022/11/02 10:04:31;;;;;;;17.98;7.20;;;22.60;63.80;;;;;;5029852;28;20033;-75
2022/11/02 10:07:19;;;;;;;20.77;7.57;;;22.60;63.70;;;;;;5045380;28;20064;-75
2022/11/02 10:09:59;;;;;;;16.30;6.70;;;22.50;63.90;;;;;;5029870;28;20095;-75
2022/11/02 10:12:56;;;;;;;17.08;6.75;;;22.60;63.70;;;;;;5029680;28;20026;-75
2022/11/02 10:19:29;;;;;;;17.38;6.82;;;22.60;64.20;;;;;;5020190;28;20028;-75
2022/11/02 10:21:59;;;;;;;18.58;7.05;;;22.50;66.30;;;;;;5017984;28;20047;-76
2022/11/02 10:24:24;;;;;;;;;;;22.50;65.90;;;;;;5018877;28;20063;-75
2022/11/02 10:26:57;;;;;;;21.83;6.72;;;22.50;65.40;;;;;;4984301;28;20612;-75
2022/11/02 10:29:45;;;;;;;16.48;6.78;;;22.50;66.00;;;;;;5010464;28;20030;-75
2022/11/02 10:32:12;;;;;;;20.00;6.80;;;22.50;65.50;;;;;;5000422;28;20512;-75
2022/11/02 10:34:40;;;;;;;19.00;6.75;;;22.50;65.50;;;;;;5014002;28;20033;-75
2022/11/02 10:37:24;;;;;;;14.80;6.13;;;22.50;65.60;;;;;;5019079;28;20072;-76
2022/11/02 10:40:20;;;;;;;17.52;6.18;;;22.50;66.10;;;;;;5019480;28;20029;-75
2022/11/02 10:43:18;;;;;;;17.10;6.70;;;22.50;66.10;;;;;;5018826;28;20113;-76
2022/11/02 10:46:09;;;;;;;23.52;6.35;;;22.60;65.80;;;;;;5002597;28;20034;-76
2022/11/02 10:48:42;;;;;;;15.25;6.18;;;22.60;65.80;;;;;;5000574;28;20420;-77
2022/11/02 10:51:11;;;;;;;14.13;6.10;;;22.60;65.70;;;;;;5016980;28;20148;-75
2022/11/02 10:53:49;;;;;;;16.07;6.40;;;22.60;66.00;;;;;;4991391;28;20034;-75
2022/11/02 10:56:29;;;;;;;19.20;6.20;;;22.60;65.80;;;;;;5031786;28;20446;-76
2022/11/02 10:59:01;;;;;;;18.95;6.57;;;22.60;65.60;;;;;;5023786;28;20025;-76
2022/11/02 11:01:29;;;;;;;15.30;4.80;;;22.60;66.00;;;;;;5026498;28;20033;-75
2022/11/02 11:03:59;;;;;;;20.80;4.72;;;22.60;66.30;;;;;;5027809;28;20061;-75
2022/11/02 11:06:35;;;;;;;11.63;3.95;;;22.50;58.90;;;;;;5011343;28;20161;-75
2022/11/02 11:09:25;;;;;;;13.20;4.05;;;22.40;58.50;;;;;;5012198;28;20026;-75
2022/11/02 11:12:05;;;;;;;13.48;4.80;;;22.30;57.20;;;;;;4973142;28;20042;-75
2022/11/02 11:14:56;;;;;;;15.95;4.57;;;22.30;56.40;;;;;;5015750;28;20037;-76
2022/11/02 11:17:28;;;;;;;18.38;4.28;;;22.20;54.60;;;;;;4980828;28;20046;-75
2022/11/02 11:19:56;;;;;;;20.45;3.83;;;22.10;54.20;;;;;;5012936;28;20073;-74
2022/11/02 11:22:37;;;;;;;10.70;2.90;;;22.10;53.40;;;;;;5026988;28;20033;-74
2022/11/02 11:25:11;;;;;;;11.13;3.00;;;22.10;53.30;;;;;;5021391;28;20022;-74
2022/11/02 11:27:54;;;;;;;19.83;3.03;;;22.00;54.00;;;;;;5013900;28;20029;-75
2022/11/02 11:30:26;;;;;;;12.60;2.95;;;22.00;52.10;;;;;;5016840;28;20040;-74
2022/11/02 11:32:53;;;;;;;9.77;3.30;;;22.00;51.80;;;;;;4998059;28;20439;-74
2022/11/02 11:35:20;;;;;;;65.13;41.33;;;21.90;51.50;;;;;;5011061;28;20069;-74
2022/11/02 11:37:58;;;;;;;65.15;44.60;;;21.90;51.30;;;;;;5010699;28;20033;-76
2022/11/02 11:40:26;;;;;;;65.30;41.63;;;21.90;53.30;;;;;;5013748;28;20087;-74
2022/11/02 11:42:56;;;;;;;68.20;41.45;;;21.90;52.60;;;;;;5017252;28;20060;-74
2022/11/02 11:45:26;;;;;;;64.97;43.78;;;22.00;52.90;;;;;;5012833;28;20025;-74
2022/11/02 11:50:49;;;;;;;57.45;33.60;;;22.10;54.20;;;;;;5223871;23;19930;-73
2022/11/02 11:53:23;;;;;;;55.88;35.35;;;22.10;54.70;;;;;;4939539;28;20082;-74
2022/11/02 11:55:51;;;;;;;47.85;32.70;;;22.10;54.90;;;;;;4947639;28;20118;-73
2022/11/02 11:58:26;;;;;;;49.92;32.33;;;22.20;55.40;;;;;;4951906;28;20027;-74
2022/11/02 12:01:10;;;;;;;48.15;32.22;;;22.20;55.50;;;;;;4950918;28;20165;-75
2022/11/02 12:03:52;;;;;;;50.58;31.67;;;22.20;55.30;;;;;;4968616;28;20102;-72
2022/11/02 12:06:39;;;;;;;47.13;31.42;;;22.20;56.90;;;;;;4958360;28;20508;-74
2022/11/02 12:09:27;;;;;;;50.55;31.48;;;22.20;55.80;;;;;;4960677;28;20066;-74
2022/11/02 12:12:17;;;;;;;46.47;30.38;;;22.30;56.20;;;;;;4964643;28;20027;-74
2022/11/02 12:15:14;;;;;;;46.00;29.85;;;22.30;56.60;;;;;;4969827;28;20130;-74
2022/11/02 12:17:49;;;;;;;49.35;30.23;;;22.30;57.50;;;;;;4972051;28;20030;-74
2022/11/02 12:20:48;;;;;;;48.78;30.42;;;22.30;57.60;;;;;;4971884;28;20034;-74
2022/11/02 12:23:17;;;;;;;;;;;22.30;57.90;;;;;;4954782;28;20041;-74
2022/11/02 12:25:46;;;;;;;48.55;29.25;;;22.30;58.00;;;;;;4955172;28;20248;-74
2022/11/02 12:28:31;;;;;;;42.50;28.55;;;22.30;58.20;;;;;;4972123;28;20374;-74
2022/11/02 12:31:15;;;;;;;50.33;28.60;;;22.30;58.40;;;;;;4971330;28;20102;-74
2022/11/02 12:33:52;;;;;;;43.10;27.75;;;22.30;58.40;;;;;;4971754;28;20057;-74
2022/11/02 12:37:03;;;;;;;48.67;28.38;;;22.30;58.70;;;;;;4972120;28;20045;-74
2022/11/02 12:40:06;;;;;;;42.08;27.60;;;22.30;58.70;;;;;;4926895;28;20046;-74
2022/11/02 12:42:41;;;;;;;44.47;26.60;;;22.30;59.00;;;;;;4933211;29;20046;-74
2022/11/02 12:45:36;;;;;;;41.17;25.92;;;22.30;58.70;;;;;;4933507;29;20028;-74
2022/11/02 12:48:04;;;;;;;44.00;28.00;;;22.40;58.90;;;;;;4933212;29;20406;-74
2022/11/02 12:50:41;;;;;;;45.78;27.95;;;22.40;59.10;;;;;;4932825;29;20034;-74
2022/11/02 12:53:35;;;;;;;40.90;26.08;;;22.40;58.90;;;;;;4931843;29;20047;-74
2022/11/02 12:56:04;;;;;;;43.35;26.02;;;22.40;59.00;;;;;;4916207;29;20036;-74
2022/11/02 12:58:34;;;;;;;39.03;26.10;;;22.40;59.20;;;;;;4931881;29;20035;-74
2022/11/02 13:01:23;;;;;;;41.25;26.65;;;22.40;59.20;;;;;;4931803;29;20031;-74
2022/11/02 13:04:11;;;;;;;41.28;26.27;;;22.40;59.30;;;;;;4909524;29;20044;-74
2022/11/02 13:06:42;;;;;;;39.97;25.13;;;22.40;59.40;;;;;;4896508;29;20036;-74
2022/11/02 13:09:23;;;;;;;38.55;25.27;;;22.40;59.50;;;;;;4915687;29;20401;-74
2022/11/02 13:11:58;;;;;;;36.00;23.90;;;22.40;59.80;;;;;;4931756;29;20030;-74
2022/11/02 13:14:28;;;;;;;39.75;25.20;;;22.40;60.00;;;;;;4932611;29;20067;-74
2022/11/02 13:17:01;;;;;;;36.45;24.85;;;22.40;59.80;;;;;;4932513;29;20097;-74
2022/11/02 13:19:38;;;;;;;35.47;24.00;;;22.40;60.20;;;;;;4932338;29;20035;-74
2022/11/02 13:22:11;;;;;;;38.42;24.10;;;22.40;60.20;;;;;;4932670;29;20032;-74
2022/11/02 13:24:45;;;;;;;37.50;23.35;;;22.40;60.30;;;;;;4931784;29;20034;-74